CPA751 VHHH-VTBS
Flight info
| Callsign | CPA751 |
|---|---|
| Flight time | 2h 30m |
| Altitude | 38000 |
| Route | PECAN V10 SIKOU/K0891S1160 A202 ASSAD/K0893F380 A202 VILAO/N0482F380 A202 RAMEI W42 PAKRI Y13 RUKSA EASTE1C |
| Aircraft | A333/H-SDE3GHIJ2J3J5M1RVWXY/LB2D1 |
Departure
| Time | 2026-04-30 07:05 |
|---|---|
| Airport | Hong Kong International Airport (VHHH) |
Arrival
| Time | 2026-04-30 09:36 |
|---|---|
| Airport | Suvarnabhumi Airport (VTBS) |
| Time | Latitude | Longitude | Altitude | Speed | Heading |
|---|---|---|---|---|---|
| 2026-04-30 06:36 | 22.31251 | 113.93466 | 36 ft | 0 kts | 71° |
| 2026-04-30 06:54 | 22.31251 | 113.93464 | 36 ft | 2 kts | 71° |
| 2026-04-30 06:54 | 22.31244 | 113.93440 | 36 ft | 3 kts | 71° |
| 2026-04-30 06:54 | 22.31236 | 113.93416 | 33 ft | 3 kts | 71° |
| 2026-04-30 06:55 | 22.31230 | 113.93395 | 33 ft | 3 kts | 71° |
| 2026-04-30 06:55 | 22.31219 | 113.93374 | 33 ft | 3 kts | 38° |
| 2026-04-30 06:55 | 22.31201 | 113.93366 | 33 ft | 3 kts | 345° |
| 2026-04-30 06:55 | 22.31179 | 113.93374 | 33 ft | 3 kts | 341° |
| 2026-04-30 06:56 | 22.31166 | 113.93379 | 34 ft | 0 kts | 341° |
| 2026-04-30 06:58 | 22.31182 | 113.93373 | 34 ft | 5 kts | 341° |
| 2026-04-30 06:58 | 22.31234 | 113.93354 | 34 ft | 9 kts | 341° |
| 2026-04-30 06:58 | 22.31282 | 113.93314 | 36 ft | 9 kts | 306° |
| 2026-04-30 06:58 | 22.31289 | 113.93248 | 36 ft | 9 kts | 253° |
| 2026-04-30 06:59 | 22.31262 | 113.93171 | 36 ft | 13 kts | 249° |
| 2026-04-30 06:59 | 22.31202 | 113.93088 | 36 ft | 16 kts | 195° |
| 2026-04-30 06:59 | 22.31080 | 113.93122 | 36 ft | 20 kts | 161° |
| 2026-04-30 06:59 | 22.30948 | 113.93171 | 36 ft | 18 kts | 165° |
| 2026-04-30 07:00 | 22.30868 | 113.93098 | 36 ft | 17 kts | 250° |
| 2026-04-30 07:00 | 22.30822 | 113.92960 | 36 ft | 23 kts | 251° |
| 2026-04-30 07:00 | 22.30764 | 113.92780 | 36 ft | 27 kts | 250° |
| 2026-04-30 07:00 | 22.30703 | 113.92592 | 36 ft | 27 kts | 250° |
| 2026-04-30 07:01 | 22.30642 | 113.92402 | 36 ft | 27 kts | 250° |
| 2026-04-30 07:01 | 22.30579 | 113.92214 | 36 ft | 27 kts | 251° |
| 2026-04-30 07:01 | 22.30520 | 113.92025 | 36 ft | 27 kts | 251° |
| 2026-04-30 07:01 | 22.30460 | 113.91836 | 36 ft | 27 kts | 250° |
| 2026-04-30 07:02 | 22.30397 | 113.91647 | 36 ft | 27 kts | 251° |
| 2026-04-30 07:02 | 22.30336 | 113.91457 | 36 ft | 27 kts | 251° |
| 2026-04-30 07:02 | 22.30274 | 113.91266 | 36 ft | 27 kts | 251° |
| 2026-04-30 07:02 | 22.30213 | 113.91076 | 36 ft | 27 kts | 250° |
| 2026-04-30 07:03 | 22.30151 | 113.90884 | 36 ft | 27 kts | 251° |
| 2026-04-30 07:03 | 22.30090 | 113.90693 | 36 ft | 27 kts | 251° |
| 2026-04-30 07:03 | 22.30027 | 113.90501 | 36 ft | 27 kts | 251° |
| 2026-04-30 07:03 | 22.29965 | 113.90309 | 36 ft | 27 kts | 251° |
| 2026-04-30 07:04 | 22.29903 | 113.90116 | 36 ft | 27 kts | 252° |
| 2026-04-30 07:04 | 22.29849 | 113.89944 | 36 ft | 18 kts | 251° |
| 2026-04-30 07:04 | 22.29763 | 113.89885 | 36 ft | 17 kts | 166° |
| 2026-04-30 07:04 | 22.29670 | 113.89953 | 34 ft | 18 kts | 97° |
| 2026-04-30 07:05 | 22.29928 | 113.90750 | 35 ft | 113 kts | 71° |
| 2026-04-30 07:05 | 22.30232 | 113.91745 | 101 ft | 160 kts | 69° |
| 2026-04-30 07:05 | 22.30590 | 113.92876 | 831 ft | 159 kts | 70° |
| 2026-04-30 07:06 | 22.30919 | 113.93997 | 1754 ft | 154 kts | 69° |
| 2026-04-30 07:06 | 22.31234 | 113.95106 | 2482 ft | 158 kts | 70° |
| 2026-04-30 07:06 | 22.31589 | 113.96270 | 2882 ft | 176 kts | 66° |
| 2026-04-30 07:06 | 22.32056 | 113.97587 | 3173 ft | 201 kts | 66° |
| 2026-04-30 07:07 | 22.32569 | 113.99069 | 3625 ft | 218 kts | 67° |
| 2026-04-30 07:07 | 22.33101 | 114.00660 | 4177 ft | 232 kts | 67° |
| 2026-04-30 07:07 | 22.33623 | 114.02358 | 4773 ft | 244 kts | 74° |
| 2026-04-30 07:07 | 22.33787 | 114.04208 | 5418 ft | 251 kts | 96° |
| 2026-04-30 07:08 | 22.33314 | 114.06031 | 6132 ft | 256 kts | 119° |
| 2026-04-30 07:08 | 22.32220 | 114.07529 | 6875 ft | 255 kts | 143° |
| 2026-04-30 07:08 | 22.30690 | 114.08460 | 7582 ft | 252 kts | 167° |
| 2026-04-30 07:08 | 22.28977 | 114.08745 | 8335 ft | 249 kts | 182° |
| 2026-04-30 07:09 | 22.27242 | 114.08738 | 8996 ft | 255 kts | 187° |
| 2026-04-30 07:09 | 22.25403 | 114.08639 | 9348 ft | 274 kts | 187° |
| 2026-04-30 07:09 | 22.23456 | 114.08531 | 9849 ft | 285 kts | 187° |
| 2026-04-30 07:09 | 22.21449 | 114.08413 | 10323 ft | 296 kts | 187° |
| 2026-04-30 07:10 | 22.19330 | 114.08282 | 10612 ft | 314 kts | 187° |
| 2026-04-30 07:10 | 22.17087 | 114.08139 | 10859 ft | 331 kts | 187° |
| 2026-04-30 07:10 | 22.14731 | 114.07989 | 11100 ft | 347 kts | 187° |
| 2026-04-30 07:10 | 22.12263 | 114.07832 | 11338 ft | 363 kts | 187° |
| 2026-04-30 07:11 | 22.09702 | 114.07670 | 11675 ft | 373 kts | 187° |
| 2026-04-30 07:11 | 22.07090 | 114.07506 | 12149 ft | 379 kts | 187° |
| 2026-04-30 07:11 | 22.04445 | 114.07339 | 12671 ft | 383 kts | 187° |
| 2026-04-30 07:11 | 22.01774 | 114.07170 | 13229 ft | 386 kts | 187° |
| 2026-04-30 07:12 | 21.99078 | 114.06999 | 13754 ft | 390 kts | 187° |
| 2026-04-30 07:12 | 21.96359 | 114.06825 | 14242 ft | 393 kts | 187° |
| 2026-04-30 07:12 | 21.93622 | 114.06651 | 14734 ft | 395 kts | 187° |
| 2026-04-30 07:12 | 21.90867 | 114.06475 | 15224 ft | 398 kts | 187° |
| 2026-04-30 07:13 | 21.88092 | 114.06298 | 15689 ft | 401 kts | 187° |
| 2026-04-30 07:13 | 21.85297 | 114.06119 | 16158 ft | 404 kts | 187° |
| 2026-04-30 07:13 | 21.82487 | 114.05940 | 16623 ft | 407 kts | 187° |
| 2026-04-30 07:13 | 21.79652 | 114.05759 | 17077 ft | 409 kts | 187° |
| 2026-04-30 07:14 | 21.76799 | 114.05578 | 17534 ft | 412 kts | 187° |
| 2026-04-30 07:14 | 21.73922 | 114.05394 | 17974 ft | 415 kts | 187° |
| 2026-04-30 07:14 | 21.71076 | 114.05213 | 18386 ft | 417 kts | 187° |
| 2026-04-30 07:14 | 21.68168 | 114.05028 | 18760 ft | 420 kts | 187° |
| 2026-04-30 07:15 | 21.65207 | 114.04839 | 19144 ft | 422 kts | 187° |
| 2026-04-30 07:15 | 21.62311 | 114.04655 | 19511 ft | 424 kts | 187° |
| 2026-04-30 07:15 | 21.59362 | 114.04468 | 19878 ft | 426 kts | 187° |
| 2026-04-30 07:15 | 21.56397 | 114.04279 | 20206 ft | 428 kts | 187° |
| 2026-04-30 07:16 | 21.53416 | 114.04090 | 20541 ft | 430 kts | 187° |
| 2026-04-30 07:16 | 21.50422 | 114.03900 | 20884 ft | 432 kts | 187° |
| 2026-04-30 07:16 | 21.47412 | 114.03709 | 21220 ft | 434 kts | 187° |
| 2026-04-30 07:16 | 21.44387 | 114.03517 | 21560 ft | 436 kts | 187° |
| 2026-04-30 07:17 | 21.41343 | 114.03324 | 21895 ft | 438 kts | 187° |
| 2026-04-30 07:17 | 21.38293 | 114.03129 | 22226 ft | 440 kts | 187° |
| 2026-04-30 07:17 | 21.32144 | 114.02734 | 22886 ft | 444 kts | 187° |
| 2026-04-30 07:18 | 21.29050 | 114.02533 | 23197 ft | 446 kts | 187° |
| 2026-04-30 07:18 | 21.25940 | 114.02330 | 23487 ft | 449 kts | 187° |
| 2026-04-30 07:18 | 21.22809 | 114.02125 | 23758 ft | 452 kts | 187° |
| 2026-04-30 07:18 | 21.19672 | 114.01919 | 24030 ft | 454 kts | 187° |
| 2026-04-30 07:19 | 21.16511 | 114.01709 | 24303 ft | 455 kts | 187° |
| 2026-04-30 07:19 | 21.13340 | 114.01499 | 24581 ft | 457 kts | 187° |
| 2026-04-30 07:19 | 21.10158 | 114.01287 | 24865 ft | 459 kts | 187° |
| 2026-04-30 07:19 | 21.06965 | 114.01074 | 25142 ft | 461 kts | 187° |
| 2026-04-30 07:20 | 21.03764 | 114.00862 | 25420 ft | 463 kts | 187° |
| 2026-04-30 07:20 | 21.00539 | 114.00649 | 25701 ft | 464 kts | 187° |
| 2026-04-30 07:20 | 20.97315 | 114.00434 | 25981 ft | 466 kts | 187° |
| 2026-04-30 07:20 | 20.94074 | 114.00214 | 26286 ft | 467 kts | 187° |
| 2026-04-30 07:21 | 20.90822 | 113.99990 | 26562 ft | 469 kts | 187° |
| 2026-04-30 07:21 | 20.87559 | 113.99766 | 26841 ft | 471 kts | 187° |
| 2026-04-30 07:21 | 20.84283 | 113.99540 | 27137 ft | 473 kts | 187° |
| 2026-04-30 07:21 | 20.80993 | 113.99312 | 27416 ft | 475 kts | 187° |
| 2026-04-30 07:22 | 20.74376 | 113.98854 | 27966 ft | 478 kts | 187° |
| 2026-04-30 07:22 | 20.71046 | 113.98622 | 28242 ft | 480 kts | 187° |
| 2026-04-30 07:22 | 20.67706 | 113.98388 | 28511 ft | 482 kts | 187° |
| 2026-04-30 07:23 | 20.64356 | 113.98152 | 28801 ft | 483 kts | 187° |
| 2026-04-30 07:23 | 20.61003 | 113.97913 | 29057 ft | 485 kts | 187° |
| 2026-04-30 07:23 | 20.57623 | 113.97671 | 29311 ft | 487 kts | 187° |
| 2026-04-30 07:23 | 20.54244 | 113.97429 | 29558 ft | 488 kts | 187° |
| 2026-04-30 07:24 | 20.50852 | 113.97186 | 29907 ft | 488 kts | 187° |
| 2026-04-30 07:24 | 20.47472 | 113.96947 | 30267 ft | 486 kts | 187° |
| 2026-04-30 07:24 | 20.45234 | 113.96790 | 30465 ft | 486 kts | 187° |
| 2026-04-30 07:24 | 20.41859 | 113.96556 | 30731 ft | 486 kts | 187° |
| 2026-04-30 07:25 | 20.38480 | 113.96325 | 31013 ft | 486 kts | 187° |
| 2026-04-30 07:25 | 20.33968 | 113.96022 | 31388 ft | 486 kts | 187° |
| 2026-04-30 07:25 | 20.31731 | 113.95874 | 31581 ft | 486 kts | 187° |
| 2026-04-30 07:25 | 20.28356 | 113.95652 | 31873 ft | 486 kts | 187° |
| 2026-04-30 07:26 | 20.24981 | 113.95434 | 32169 ft | 486 kts | 187° |
| 2026-04-30 07:26 | 20.21609 | 113.95219 | 32459 ft | 485 kts | 187° |
| 2026-04-30 07:26 | 20.18245 | 113.95007 | 32748 ft | 485 kts | 187° |
| 2026-04-30 07:26 | 20.14874 | 113.94799 | 33057 ft | 485 kts | 187° |
| 2026-04-30 07:27 | 20.11497 | 113.94593 | 33353 ft | 485 kts | 187° |
| 2026-04-30 07:27 | 20.08131 | 113.94391 | 33627 ft | 485 kts | 187° |
| 2026-04-30 07:27 | 20.04768 | 113.94179 | 33946 ft | 484 kts | 187° |
| 2026-04-30 07:27 | 20.01409 | 113.93963 | 34213 ft | 483 kts | 187° |
| 2026-04-30 07:28 | 19.98063 | 113.93753 | 34478 ft | 483 kts | 187° |
| 2026-04-30 07:28 | 19.94712 | 113.93548 | 34742 ft | 482 kts | 187° |
| 2026-04-30 07:28 | 19.91365 | 113.93350 | 35007 ft | 481 kts | 187° |
| 2026-04-30 07:28 | 19.88015 | 113.93159 | 35268 ft | 481 kts | 187° |
| 2026-04-30 07:29 | 19.84675 | 113.92974 | 35515 ft | 480 kts | 187° |
| 2026-04-30 07:29 | 19.81337 | 113.92795 | 35792 ft | 480 kts | 187° |
| 2026-04-30 07:29 | 19.78050 | 113.92624 | 36051 ft | 479 kts | 187° |
| 2026-04-30 07:29 | 19.74688 | 113.92445 | 36328 ft | 477 kts | 188° |
| 2026-04-30 07:30 | 19.68214 | 113.91552 | 36854 ft | 469 kts | 198° |
| 2026-04-30 07:30 | 19.65086 | 113.90618 | 37089 ft | 464 kts | 204° |
| 2026-04-30 07:30 | 19.62125 | 113.89305 | 37339 ft | 459 kts | 212° |
| 2026-04-30 07:31 | 19.59422 | 113.87570 | 37556 ft | 453 kts | 220° |
| 2026-04-30 07:31 | 19.57044 | 113.85420 | 37805 ft | 447 kts | 230° |
| 2026-04-30 07:31 | 19.55055 | 113.82917 | 37964 ft | 442 kts | 238° |
| 2026-04-30 07:32 | 19.52397 | 113.77151 | 37975 ft | 433 kts | 255° |
| 2026-04-30 07:32 | 19.51463 | 113.70890 | 37974 ft | 430 kts | 266° |
| 2026-04-30 07:33 | 19.51204 | 113.64556 | 37975 ft | 430 kts | 268° |
| 2026-04-30 07:33 | 19.51036 | 113.58217 | 37968 ft | 430 kts | 268° |
| 2026-04-30 07:34 | 19.50820 | 113.51860 | 37975 ft | 432 kts | 268° |
| 2026-04-30 07:34 | 19.50563 | 113.45495 | 37977 ft | 432 kts | 267° |
| 2026-04-30 07:35 | 19.50294 | 113.39138 | 37981 ft | 432 kts | 267° |
| 2026-04-30 07:35 | 19.50023 | 113.32786 | 37979 ft | 431 kts | 267° |
| 2026-04-30 07:36 | 19.49752 | 113.26438 | 37977 ft | 431 kts | 267° |
| 2026-04-30 07:36 | 19.49482 | 113.20138 | 37982 ft | 431 kts | 267° |
| 2026-04-30 07:37 | 19.49208 | 113.13800 | 37982 ft | 431 kts | 267° |
| 2026-04-30 07:37 | 19.48931 | 113.07451 | 37982 ft | 431 kts | 267° |
| 2026-04-30 07:38 | 19.48652 | 113.01107 | 37982 ft | 431 kts | 267° |
| 2026-04-30 07:38 | 19.48371 | 112.94754 | 37983 ft | 432 kts | 267° |
| 2026-04-30 07:39 | 19.48087 | 112.88398 | 37981 ft | 432 kts | 267° |
| 2026-04-30 07:39 | 19.47801 | 112.82045 | 37980 ft | 432 kts | 267° |
| 2026-04-30 07:40 | 19.47513 | 112.75690 | 37982 ft | 432 kts | 267° |
| 2026-04-30 07:40 | 19.47222 | 112.69338 | 37980 ft | 432 kts | 267° |
| 2026-04-30 07:41 | 19.46930 | 112.62981 | 37983 ft | 432 kts | 267° |
| 2026-04-30 07:41 | 19.46635 | 112.56619 | 37984 ft | 432 kts | 267° |
| 2026-04-30 07:42 | 19.46338 | 112.50269 | 37983 ft | 432 kts | 267° |
| 2026-04-30 07:42 | 19.46038 | 112.43913 | 37988 ft | 432 kts | 267° |
| 2026-04-30 07:43 | 19.45737 | 112.37562 | 37987 ft | 432 kts | 267° |
| 2026-04-30 07:43 | 19.45433 | 112.31207 | 37990 ft | 432 kts | 267° |
| 2026-04-30 07:44 | 19.45126 | 112.24847 | 37987 ft | 432 kts | 267° |
| 2026-04-30 07:44 | 19.44818 | 112.18489 | 37988 ft | 432 kts | 267° |
| 2026-04-30 07:45 | 19.44507 | 112.12130 | 37998 ft | 432 kts | 267° |
| 2026-04-30 07:45 | 19.44195 | 112.05773 | 37987 ft | 432 kts | 266° |
| 2026-04-30 07:46 | 19.43882 | 111.99458 | 37987 ft | 432 kts | 266° |
| 2026-04-30 07:46 | 19.43564 | 111.93103 | 37991 ft | 432 kts | 266° |
| 2026-04-30 07:47 | 19.43245 | 111.86746 | 37991 ft | 432 kts | 266° |
| 2026-04-30 07:47 | 19.42924 | 111.80394 | 37987 ft | 432 kts | 266° |
| 2026-04-30 07:48 | 19.42599 | 111.74029 | 37993 ft | 432 kts | 266° |
| 2026-04-30 07:48 | 19.42273 | 111.67672 | 37993 ft | 432 kts | 266° |
| 2026-04-30 07:49 | 19.41945 | 111.61316 | 37990 ft | 432 kts | 266° |
| 2026-04-30 07:49 | 19.41614 | 111.54957 | 37990 ft | 432 kts | 266° |
| 2026-04-30 07:50 | 19.41281 | 111.48606 | 37992 ft | 432 kts | 266° |
| 2026-04-30 07:50 | 19.40946 | 111.42244 | 37990 ft | 432 kts | 266° |
| 2026-04-30 07:51 | 19.40609 | 111.35890 | 37992 ft | 432 kts | 266° |
| 2026-04-30 07:51 | 19.40269 | 111.29532 | 37993 ft | 432 kts | 266° |
| 2026-04-30 07:52 | 19.39928 | 111.23173 | 37995 ft | 432 kts | 266° |
| 2026-04-30 07:52 | 19.39584 | 111.16833 | 37997 ft | 436 kts | 266° |
| 2026-04-30 07:53 | 19.39232 | 111.10365 | 37996 ft | 437 kts | 266° |
| 2026-04-30 07:53 | 19.38883 | 111.03996 | 37996 ft | 435 kts | 266° |
| 2026-04-30 07:54 | 19.38530 | 110.97597 | 37993 ft | 435 kts | 266° |
| 2026-04-30 07:54 | 19.38175 | 110.91202 | 37993 ft | 435 kts | 266° |
| 2026-04-30 07:55 | 19.37818 | 110.84804 | 37990 ft | 435 kts | 266° |
| 2026-04-30 07:55 | 19.37458 | 110.78410 | 37993 ft | 435 kts | 267° |
| 2026-04-30 07:56 | 19.37097 | 110.72027 | 37984 ft | 433 kts | 267° |
| 2026-04-30 07:56 | 19.36735 | 110.65664 | 37984 ft | 433 kts | 267° |
| 2026-04-30 07:57 | 19.36370 | 110.59287 | 37982 ft | 433 kts | 266° |
| 2026-04-30 07:57 | 19.36003 | 110.52915 | 38155 ft | 434 kts | 266° |
| 2026-04-30 07:57 | 19.35819 | 110.49729 | 38434 ft | 432 kts | 267° |
| 2026-04-30 07:58 | 19.35635 | 110.46564 | 38694 ft | 431 kts | 266° |
| 2026-04-30 07:58 | 19.35260 | 110.40187 | 38844 ft | 436 kts | 266° |
| 2026-04-30 07:58 | 19.35071 | 110.36996 | 39019 ft | 435 kts | 266° |
| 2026-04-30 07:59 | 19.34883 | 110.33803 | 39200 ft | 434 kts | 266° |
| 2026-04-30 07:59 | 19.34697 | 110.30615 | 39382 ft | 434 kts | 266° |
| 2026-04-30 07:59 | 19.34510 | 110.27431 | 39547 ft | 433 kts | 266° |
| 2026-04-30 08:00 | 19.34134 | 110.21066 | 39875 ft | 433 kts | 266° |
| 2026-04-30 08:00 | 19.33945 | 110.17885 | 39973 ft | 433 kts | 266° |
| 2026-04-30 08:00 | 19.33566 | 110.11559 | 39988 ft | 433 kts | 265° |
| 2026-04-30 08:01 | 19.33181 | 110.05179 | 39985 ft | 435 kts | 265° |
| 2026-04-30 08:01 | 19.32792 | 109.98793 | 39985 ft | 434 kts | 266° |
| 2026-04-30 08:02 | 19.32208 | 109.89280 | 39987 ft | 430 kts | 266° |
| 2026-04-30 08:03 | 19.31434 | 109.76640 | 39987 ft | 431 kts | 266° |
| 2026-04-30 08:04 | 19.31034 | 109.70278 | 39989 ft | 434 kts | 266° |
| 2026-04-30 08:04 | 19.30638 | 109.63911 | 39992 ft | 434 kts | 266° |
| 2026-04-30 08:05 | 19.30240 | 109.57535 | 39988 ft | 434 kts | 265° |
| 2026-04-30 08:05 | 19.29838 | 109.51163 | 39997 ft | 434 kts | 266° |
| 2026-04-30 08:06 | 19.29432 | 109.44786 | 39996 ft | 434 kts | 265° |
| 2026-04-30 08:06 | 19.29026 | 109.38417 | 39993 ft | 433 kts | 265° |
| 2026-04-30 08:07 | 19.28617 | 109.32056 | 39996 ft | 433 kts | 265° |
| 2026-04-30 08:07 | 19.28207 | 109.25712 | 39995 ft | 432 kts | 265° |
| 2026-04-30 08:08 | 19.27794 | 109.19361 | 39998 ft | 432 kts | 265° |
| 2026-04-30 08:08 | 19.27380 | 109.13013 | 39997 ft | 432 kts | 265° |
| 2026-04-30 08:09 | 19.26964 | 109.06681 | 39993 ft | 430 kts | 265° |
| 2026-04-30 08:09 | 19.26548 | 109.00383 | 39991 ft | 428 kts | 265° |
| 2026-04-30 08:10 | 19.26134 | 108.94139 | 39989 ft | 428 kts | 265° |
| 2026-04-30 08:10 | 19.25334 | 108.87915 | 39987 ft | 427 kts | 255° |
| 2026-04-30 08:11 | 19.23013 | 108.82135 | 39986 ft | 429 kts | 239° |
| 2026-04-30 08:11 | 19.19439 | 108.77058 | 39984 ft | 432 kts | 233° |
| 2026-04-30 08:12 | 19.15591 | 108.72139 | 39985 ft | 435 kts | 232° |
| 2026-04-30 08:12 | 19.11708 | 108.67226 | 39982 ft | 434 kts | 232° |
| 2026-04-30 08:13 | 19.07859 | 108.62309 | 39980 ft | 434 kts | 233° |
| 2026-04-30 08:13 | 19.04029 | 108.57386 | 39981 ft | 433 kts | 233° |
| 2026-04-30 08:14 | 19.00201 | 108.52460 | 39979 ft | 434 kts | 233° |
| 2026-04-30 08:14 | 18.97017 | 108.48368 | 39979 ft | 434 kts | 233° |
| 2026-04-30 08:15 | 18.93164 | 108.43421 | 39982 ft | 434 kts | 233° |
| 2026-04-30 08:15 | 18.89326 | 108.38498 | 39988 ft | 434 kts | 232° |
| 2026-04-30 08:16 | 18.85510 | 108.33607 | 39974 ft | 434 kts | 232° |
| 2026-04-30 08:16 | 18.81664 | 108.28682 | 39977 ft | 435 kts | 232° |
| 2026-04-30 08:17 | 18.77821 | 108.23765 | 39977 ft | 435 kts | 232° |
| 2026-04-30 08:17 | 18.73971 | 108.18842 | 39977 ft | 435 kts | 232° |
| 2026-04-30 08:18 | 18.70120 | 108.13922 | 39979 ft | 435 kts | 232° |
| 2026-04-30 08:18 | 18.66269 | 108.09006 | 39980 ft | 435 kts | 232° |
| 2026-04-30 08:19 | 18.62415 | 108.04090 | 39976 ft | 435 kts | 232° |
| 2026-04-30 08:19 | 18.58557 | 107.99172 | 39982 ft | 435 kts | 232° |
| 2026-04-30 08:20 | 18.54690 | 107.94252 | 39985 ft | 437 kts | 233° |
| 2026-04-30 08:20 | 18.50798 | 107.89305 | 39980 ft | 439 kts | 233° |
| 2026-04-30 08:21 | 18.46899 | 107.84342 | 39983 ft | 440 kts | 233° |
| 2026-04-30 08:21 | 18.42999 | 107.79381 | 39985 ft | 440 kts | 233° |
| 2026-04-30 08:22 | 18.39096 | 107.74424 | 39985 ft | 440 kts | 233° |
| 2026-04-30 08:22 | 18.35202 | 107.69477 | 39988 ft | 438 kts | 234° |
| 2026-04-30 08:23 | 18.31767 | 107.64215 | 39984 ft | 436 kts | 238° |
| 2026-04-30 08:23 | 18.28498 | 107.58842 | 39976 ft | 436 kts | 239° |
| 2026-04-30 08:24 | 18.25268 | 107.53485 | 39986 ft | 437 kts | 239° |
| 2026-04-30 08:24 | 18.21992 | 107.48050 | 39985 ft | 437 kts | 239° |
| 2026-04-30 08:25 | 18.18755 | 107.42686 | 39988 ft | 437 kts | 239° |
| 2026-04-30 08:25 | 18.15490 | 107.37292 | 39985 ft | 437 kts | 239° |
| 2026-04-30 08:26 | 18.12218 | 107.31900 | 39988 ft | 437 kts | 239° |
| 2026-04-30 08:26 | 18.08947 | 107.26513 | 39990 ft | 437 kts | 239° |
| 2026-04-30 08:27 | 18.05670 | 107.21123 | 39986 ft | 437 kts | 239° |
| 2026-04-30 08:27 | 18.02389 | 107.15736 | 39989 ft | 437 kts | 239° |
| 2026-04-30 08:28 | 17.99106 | 107.10353 | 39990 ft | 437 kts | 239° |
| 2026-04-30 08:28 | 17.95822 | 107.04971 | 39989 ft | 438 kts | 239° |
| 2026-04-30 08:29 | 17.92535 | 106.99590 | 39991 ft | 438 kts | 239° |
| 2026-04-30 08:29 | 17.89249 | 106.94213 | 39993 ft | 437 kts | 239° |
| 2026-04-30 08:30 | 17.85973 | 106.88837 | 39991 ft | 437 kts | 239° |
| 2026-04-30 08:30 | 17.82701 | 106.83449 | 39993 ft | 437 kts | 239° |
| 2026-04-30 08:31 | 17.79432 | 106.78071 | 39991 ft | 437 kts | 239° |
| 2026-04-30 08:31 | 17.76159 | 106.72692 | 39994 ft | 437 kts | 239° |
| 2026-04-30 08:32 | 17.72883 | 106.67314 | 39996 ft | 437 kts | 239° |
| 2026-04-30 08:32 | 17.69607 | 106.61942 | 39997 ft | 437 kts | 239° |
| 2026-04-30 08:33 | 17.66325 | 106.56570 | 39999 ft | 437 kts | 239° |
| 2026-04-30 08:33 | 17.63035 | 106.51204 | 39999 ft | 437 kts | 239° |
| 2026-04-30 08:34 | 17.59744 | 106.45840 | 40002 ft | 437 kts | 239° |
| 2026-04-30 08:34 | 17.56473 | 106.40514 | 40004 ft | 437 kts | 239° |
| 2026-04-30 08:35 | 17.53161 | 106.35124 | 40000 ft | 437 kts | 239° |
| 2026-04-30 08:35 | 17.49887 | 106.29799 | 40009 ft | 438 kts | 239° |
| 2026-04-30 08:36 | 17.46585 | 106.24432 | 40003 ft | 438 kts | 239° |
| 2026-04-30 08:36 | 17.43281 | 106.19068 | 40009 ft | 438 kts | 238° |
| 2026-04-30 08:37 | 17.39974 | 106.13703 | 40011 ft | 438 kts | 238° |
| 2026-04-30 08:37 | 17.36673 | 106.08350 | 40010 ft | 437 kts | 238° |
| 2026-04-30 08:38 | 17.33409 | 106.02982 | 39994 ft | 437 kts | 239° |
| 2026-04-30 08:38 | 17.30160 | 105.97603 | 39987 ft | 437 kts | 238° |
| 2026-04-30 08:39 | 17.26908 | 105.92221 | 39988 ft | 438 kts | 239° |
| 2026-04-30 08:39 | 17.23640 | 105.86840 | 39976 ft | 438 kts | 239° |
| 2026-04-30 08:40 | 17.20374 | 105.81460 | 39970 ft | 438 kts | 239° |
| 2026-04-30 08:40 | 17.17109 | 105.76081 | 39961 ft | 438 kts | 239° |
| 2026-04-30 08:41 | 17.13845 | 105.70708 | 39960 ft | 438 kts | 239° |
| 2026-04-30 08:41 | 17.10579 | 105.65338 | 39955 ft | 438 kts | 238° |
| 2026-04-30 08:42 | 17.07308 | 105.59966 | 39947 ft | 438 kts | 238° |
| 2026-04-30 08:42 | 17.04034 | 105.54593 | 39945 ft | 438 kts | 238° |
| 2026-04-30 08:43 | 17.00778 | 105.49256 | 39941 ft | 438 kts | 238° |
| 2026-04-30 08:43 | 16.97502 | 105.43887 | 39935 ft | 438 kts | 238° |
| 2026-04-30 08:44 | 16.94222 | 105.38517 | 39935 ft | 438 kts | 238° |
| 2026-04-30 08:44 | 16.90943 | 105.33151 | 39929 ft | 438 kts | 238° |
| 2026-04-30 08:45 | 16.87659 | 105.27784 | 39935 ft | 438 kts | 239° |
| 2026-04-30 08:45 | 16.84378 | 105.22432 | 39933 ft | 437 kts | 239° |
| 2026-04-30 08:46 | 16.81099 | 105.17088 | 39925 ft | 438 kts | 239° |
| 2026-04-30 08:46 | 16.77796 | 105.11709 | 39928 ft | 441 kts | 239° |
| 2026-04-30 08:47 | 16.74482 | 105.06317 | 39922 ft | 442 kts | 239° |
| 2026-04-30 08:47 | 16.71162 | 105.00922 | 39922 ft | 442 kts | 239° |
| 2026-04-30 08:48 | 16.67843 | 104.95533 | 39932 ft | 442 kts | 239° |
| 2026-04-30 08:48 | 16.64521 | 104.90144 | 39933 ft | 442 kts | 239° |
| 2026-04-30 08:49 | 16.61198 | 104.84762 | 39939 ft | 442 kts | 239° |
| 2026-04-30 08:49 | 16.57877 | 104.79375 | 39939 ft | 442 kts | 239° |
| 2026-04-30 08:50 | 16.54135 | 104.74284 | 39938 ft | 444 kts | 232° |
| 2026-04-30 08:50 | 16.50061 | 104.69446 | 39935 ft | 445 kts | 231° |
| 2026-04-30 08:51 | 16.45911 | 104.64640 | 39932 ft | 446 kts | 231° |
| 2026-04-30 08:51 | 16.42142 | 104.59532 | 39929 ft | 445 kts | 236° |
| 2026-04-30 08:52 | 16.38534 | 104.54300 | 39926 ft | 445 kts | 236° |
| 2026-04-30 08:52 | 16.34969 | 104.49092 | 39916 ft | 445 kts | 237° |
| 2026-04-30 08:53 | 16.31358 | 104.43809 | 39910 ft | 445 kts | 237° |
| 2026-04-30 08:53 | 16.27796 | 104.38599 | 39911 ft | 445 kts | 237° |
| 2026-04-30 08:54 | 16.24212 | 104.33358 | 39909 ft | 445 kts | 237° |
| 2026-04-30 08:54 | 16.20625 | 104.28117 | 39903 ft | 445 kts | 237° |
| 2026-04-30 08:55 | 16.17040 | 104.22882 | 39904 ft | 444 kts | 236° |
| 2026-04-30 08:55 | 16.13461 | 104.17660 | 39900 ft | 442 kts | 237° |
| 2026-04-30 08:56 | 16.09891 | 104.12457 | 39899 ft | 442 kts | 237° |
| 2026-04-30 08:56 | 16.06324 | 104.07258 | 39901 ft | 442 kts | 237° |
| 2026-04-30 08:57 | 16.02757 | 104.02065 | 39902 ft | 442 kts | 237° |
| 2026-04-30 08:57 | 15.99183 | 103.96865 | 39904 ft | 442 kts | 237° |
| 2026-04-30 08:58 | 15.95614 | 103.91676 | 39905 ft | 442 kts | 237° |
| 2026-04-30 08:58 | 15.92040 | 103.86482 | 39905 ft | 442 kts | 237° |
| 2026-04-30 08:59 | 15.88468 | 103.81296 | 39898 ft | 442 kts | 236° |
| 2026-04-30 08:59 | 15.84877 | 103.76085 | 39900 ft | 444 kts | 236° |
| 2026-04-30 09:00 | 15.81293 | 103.70890 | 39895 ft | 440 kts | 236° |
| 2026-04-30 09:00 | 15.77764 | 103.65777 | 39894 ft | 437 kts | 236° |
| 2026-04-30 09:01 | 15.74221 | 103.60647 | 39895 ft | 437 kts | 236° |
| 2026-04-30 09:01 | 15.70676 | 103.55518 | 39896 ft | 437 kts | 236° |
| 2026-04-30 09:02 | 15.65356 | 103.47827 | 39896 ft | 437 kts | 236° |
| 2026-04-30 09:02 | 15.62388 | 103.43540 | 39894 ft | 436 kts | 236° |
| 2026-04-30 09:03 | 15.58873 | 103.38467 | 39895 ft | 435 kts | 236° |
| 2026-04-30 09:03 | 15.55333 | 103.33358 | 39893 ft | 438 kts | 236° |
| 2026-04-30 09:04 | 15.51773 | 103.28227 | 39893 ft | 439 kts | 236° |
| 2026-04-30 09:04 | 15.48208 | 103.23091 | 39901 ft | 440 kts | 236° |
| 2026-04-30 09:05 | 15.44608 | 103.17907 | 39885 ft | 445 kts | 236° |
| 2026-04-30 09:05 | 15.40983 | 103.12694 | 39903 ft | 446 kts | 236° |
| 2026-04-30 09:06 | 15.37372 | 103.07505 | 39890 ft | 442 kts | 237° |
| 2026-04-30 09:06 | 15.33778 | 103.02341 | 39892 ft | 441 kts | 237° |
| 2026-04-30 09:07 | 15.30181 | 102.97178 | 39892 ft | 442 kts | 237° |
| 2026-04-30 09:07 | 15.26589 | 102.92023 | 39893 ft | 442 kts | 237° |
| 2026-04-30 09:08 | 15.22985 | 102.86855 | 39876 ft | 445 kts | 236° |
| 2026-04-30 09:08 | 15.19357 | 102.81657 | 39876 ft | 446 kts | 236° |
| 2026-04-30 09:09 | 15.15728 | 102.76461 | 39889 ft | 445 kts | 236° |
| 2026-04-30 09:09 | 15.12104 | 102.71276 | 39869 ft | 443 kts | 236° |
| 2026-04-30 09:10 | 15.08491 | 102.66109 | 39869 ft | 443 kts | 236° |
| 2026-04-30 09:10 | 15.04880 | 102.60949 | 39882 ft | 443 kts | 236° |
| 2026-04-30 09:11 | 15.01265 | 102.55787 | 39857 ft | 443 kts | 236° |
| 2026-04-30 09:11 | 14.97673 | 102.50661 | 39839 ft | 443 kts | 236° |
| 2026-04-30 09:12 | 14.94035 | 102.45472 | 39839 ft | 443 kts | 236° |
| 2026-04-30 09:12 | 14.90415 | 102.40313 | 39833 ft | 443 kts | 237° |
| 2026-04-30 09:13 | 14.86824 | 102.35198 | 39785 ft | 443 kts | 237° |
| 2026-04-30 09:13 | 14.84990 | 102.32587 | 39380 ft | 444 kts | 237° |
| 2026-04-30 09:13 | 14.83198 | 102.30037 | 38864 ft | 445 kts | 237° |
| 2026-04-30 09:14 | 14.81372 | 102.27438 | 38167 ft | 447 kts | 237° |
| 2026-04-30 09:14 | 14.79540 | 102.24832 | 37412 ft | 451 kts | 237° |
| 2026-04-30 09:14 | 14.77690 | 102.22200 | 36650 ft | 454 kts | 237° |
| 2026-04-30 09:14 | 14.75830 | 102.19556 | 35925 ft | 457 kts | 237° |
| 2026-04-30 09:15 | 14.73956 | 102.16894 | 35195 ft | 459 kts | 237° |
| 2026-04-30 09:15 | 14.72075 | 102.14222 | 34473 ft | 462 kts | 237° |
| 2026-04-30 09:15 | 14.70179 | 102.11529 | 33730 ft | 465 kts | 236° |
| 2026-04-30 09:15 | 14.68270 | 102.08820 | 32838 ft | 468 kts | 236° |
| 2026-04-30 09:16 | 14.66342 | 102.06084 | 31885 ft | 474 kts | 236° |
| 2026-04-30 09:16 | 14.64392 | 102.03318 | 30908 ft | 480 kts | 236° |
| 2026-04-30 09:16 | 14.62410 | 102.00510 | 29842 ft | 488 kts | 236° |
| 2026-04-30 09:16 | 14.60403 | 101.97666 | 28747 ft | 493 kts | 235° |
| 2026-04-30 09:17 | 14.58387 | 101.94811 | 27970 ft | 490 kts | 235° |
| 2026-04-30 09:17 | 14.56509 | 101.91901 | 27351 ft | 483 kts | 243° |
| 2026-04-30 09:17 | 14.55087 | 101.88785 | 26675 ft | 479 kts | 248° |
| 2026-04-30 09:17 | 14.53813 | 101.85621 | 26023 ft | 475 kts | 248° |
| 2026-04-30 09:18 | 14.52572 | 101.82483 | 25396 ft | 471 kts | 248° |
| 2026-04-30 09:18 | 14.51338 | 101.79371 | 24820 ft | 466 kts | 248° |
| 2026-04-30 09:18 | 14.50113 | 101.76291 | 24274 ft | 461 kts | 248° |
| 2026-04-30 09:18 | 14.48898 | 101.73250 | 23728 ft | 456 kts | 248° |
| 2026-04-30 09:19 | 14.47695 | 101.70242 | 23117 ft | 452 kts | 248° |
| 2026-04-30 09:19 | 14.46502 | 101.67264 | 22520 ft | 446 kts | 248° |
| 2026-04-30 09:19 | 14.45324 | 101.64326 | 21994 ft | 440 kts | 248° |
| 2026-04-30 09:19 | 14.44163 | 101.61432 | 21428 ft | 434 kts | 248° |
| 2026-04-30 09:20 | 14.43015 | 101.58574 | 20903 ft | 428 kts | 248° |
| 2026-04-30 09:20 | 14.41881 | 101.55755 | 20372 ft | 423 kts | 248° |
| 2026-04-30 09:20 | 14.40762 | 101.52967 | 19825 ft | 419 kts | 248° |
| 2026-04-30 09:20 | 14.39651 | 101.50203 | 19308 ft | 414 kts | 247° |
| 2026-04-30 09:21 | 14.38555 | 101.47478 | 18787 ft | 410 kts | 247° |
| 2026-04-30 09:21 | 14.37467 | 101.44773 | 18323 ft | 405 kts | 247° |
| 2026-04-30 09:21 | 14.36406 | 101.42140 | 18209 ft | 390 kts | 247° |
| 2026-04-30 09:21 | 14.35384 | 101.39604 | 18061 ft | 376 kts | 247° |
| 2026-04-30 09:22 | 14.34393 | 101.37146 | 17871 ft | 364 kts | 247° |
| 2026-04-30 09:22 | 14.33437 | 101.34776 | 17692 ft | 355 kts | 247° |
| 2026-04-30 09:22 | 14.32493 | 101.32432 | 17248 ft | 353 kts | 247° |
| 2026-04-30 09:22 | 14.31535 | 101.30148 | 16836 ft | 350 kts | 243° |
| 2026-04-30 09:23 | 14.30273 | 101.27996 | 16505 ft | 357 kts | 236° |
| 2026-04-30 09:23 | 14.28879 | 101.25784 | 15977 ft | 376 kts | 237° |
| 2026-04-30 09:23 | 14.27428 | 101.23489 | 15103 ft | 386 kts | 236° |
| 2026-04-30 09:23 | 14.25939 | 101.21202 | 14641 ft | 380 kts | 235° |
| 2026-04-30 09:24 | 14.24457 | 101.18975 | 14182 ft | 372 kts | 235° |
| 2026-04-30 09:24 | 14.23023 | 101.16825 | 13723 ft | 355 kts | 235° |
| 2026-04-30 09:24 | 14.21664 | 101.14784 | 13357 ft | 335 kts | 235° |
| 2026-04-30 09:24 | 14.20385 | 101.12861 | 13025 ft | 316 kts | 234° |
| 2026-04-30 09:25 | 14.19172 | 101.11036 | 12532 ft | 305 kts | 235° |
| 2026-04-30 09:25 | 14.17981 | 101.09244 | 11902 ft | 300 kts | 234° |
| 2026-04-30 09:25 | 14.16811 | 101.07484 | 11243 ft | 296 kts | 235° |
| 2026-04-30 09:25 | 14.15648 | 101.05736 | 10586 ft | 294 kts | 234° |
| 2026-04-30 09:26 | 14.14497 | 101.04007 | 9936 ft | 292 kts | 234° |
| 2026-04-30 09:26 | 14.13357 | 101.02292 | 9273 ft | 290 kts | 234° |
| 2026-04-30 09:26 | 14.12221 | 101.00583 | 8566 ft | 288 kts | 233° |
| 2026-04-30 09:26 | 14.11088 | 100.98881 | 7851 ft | 288 kts | 233° |
| 2026-04-30 09:27 | 14.09956 | 100.97180 | 7166 ft | 287 kts | 233° |
| 2026-04-30 09:27 | 14.08827 | 100.95484 | 6503 ft | 287 kts | 233° |
| 2026-04-30 09:27 | 14.07699 | 100.93791 | 5808 ft | 286 kts | 233° |
| 2026-04-30 09:27 | 14.06585 | 100.92116 | 5355 ft | 277 kts | 234° |
| 2026-04-30 09:28 | 14.05530 | 100.90529 | 5110 ft | 261 kts | 233° |
| 2026-04-30 09:28 | 14.04526 | 100.89019 | 4786 ft | 251 kts | 234° |
| 2026-04-30 09:28 | 14.03550 | 100.87552 | 4389 ft | 246 kts | 233° |
| 2026-04-30 09:28 | 14.02579 | 100.86103 | 4044 ft | 245 kts | 232° |
| 2026-04-30 09:29 | 14.01367 | 100.84918 | 3777 ft | 239 kts | 210° |
| 2026-04-30 09:29 | 13.99871 | 100.84209 | 3498 ft | 236 kts | 195° |
| 2026-04-30 09:29 | 13.98296 | 100.83774 | 3240 ft | 234 kts | 191° |
| 2026-04-30 09:29 | 13.96719 | 100.83368 | 3022 ft | 233 kts | 191° |
| 2026-04-30 09:30 | 13.95136 | 100.82961 | 2893 ft | 236 kts | 191° |
| 2026-04-30 09:30 | 13.93545 | 100.82550 | 2769 ft | 235 kts | 192° |
| 2026-04-30 09:30 | 13.91960 | 100.82136 | 2664 ft | 235 kts | 192° |
| 2026-04-30 09:30 | 13.90383 | 100.81720 | 2571 ft | 232 kts | 192° |
| 2026-04-30 09:31 | 13.88849 | 100.81309 | 2512 ft | 222 kts | 193° |
| 2026-04-30 09:31 | 13.87406 | 100.80921 | 2502 ft | 207 kts | 192° |
| 2026-04-30 09:31 | 13.86059 | 100.80561 | 2508 ft | 195 kts | 192° |
| 2026-04-30 09:31 | 13.84777 | 100.80220 | 2512 ft | 191 kts | 191° |
| 2026-04-30 09:32 | 13.83491 | 100.79882 | 2511 ft | 190 kts | 191° |
| 2026-04-30 09:32 | 13.82241 | 100.79553 | 2505 ft | 180 kts | 191° |
| 2026-04-30 09:32 | 13.81043 | 100.79238 | 2331 ft | 177 kts | 191° |
| 2026-04-30 09:32 | 13.79827 | 100.78919 | 2055 ft | 179 kts | 192° |
| 2026-04-30 09:33 | 13.78628 | 100.78602 | 1837 ft | 178 kts | 192° |
| 2026-04-30 09:33 | 13.77445 | 100.78287 | 1611 ft | 177 kts | 193° |
| 2026-04-30 09:33 | 13.76275 | 100.77980 | 1374 ft | 171 kts | 194° |
| 2026-04-30 09:33 | 13.75151 | 100.77682 | 1173 ft | 160 kts | 194° |
| 2026-04-30 09:34 | 13.74107 | 100.77406 | 961 ft | 148 kts | 194° |
| 2026-04-30 09:34 | 13.73153 | 100.77153 | 792 ft | 138 kts | 194° |
| 2026-04-30 09:34 | 13.72232 | 100.76910 | 642 ft | 135 kts | 197° |
| 2026-04-30 09:34 | 13.71302 | 100.76665 | 479 ft | 142 kts | 195° |
| 2026-04-30 09:35 | 13.70340 | 100.76408 | 299 ft | 142 kts | 194° |
| 2026-04-30 09:35 | 13.69400 | 100.76157 | 107 ft | 139 kts | 194° |
| 2026-04-30 09:35 | 13.68480 | 100.75919 | 24 ft | 127 kts | 195° |
| 2026-04-30 09:35 | 13.67810 | 100.75744 | 15 ft | 72 kts | 192° |
| 2026-04-30 09:36 | 13.67543 | 100.75635 | 15 ft | 26 kts | 213° |
| 2026-04-30 09:36 | 13.67453 | 100.75527 | 17 ft | 15 kts | 261° |
| 2026-04-30 09:36 | 13.67513 | 100.75480 | 17 ft | 13 kts | 3° |
| 2026-04-30 09:36 | 13.67603 | 100.75496 | 17 ft | 14 kts | 12° |
| 2026-04-30 09:37 | 13.67698 | 100.75524 | 16 ft | 14 kts | 17° |
| 2026-04-30 09:37 | 13.67770 | 100.75484 | 17 ft | 13 kts | 289° |
| 2026-04-30 09:37 | 13.67795 | 100.75388 | 17 ft | 15 kts | 283° |
| 2026-04-30 09:37 | 13.67818 | 100.75282 | 17 ft | 16 kts | 283° |
| 2026-04-30 09:38 | 13.67848 | 100.75167 | 17 ft | 17 kts | 285° |
| 2026-04-30 09:38 | 13.67880 | 100.75044 | 17 ft | 19 kts | 284° |
| 2026-04-30 09:38 | 13.67913 | 100.74910 | 19 ft | 20 kts | 284° |
| 2026-04-30 09:38 | 13.67948 | 100.74769 | 17 ft | 21 kts | 284° |
| 2026-04-30 09:39 | 13.67985 | 100.74619 | 17 ft | 22 kts | 284° |
| 2026-04-30 09:39 | 13.68023 | 100.74462 | 17 ft | 23 kts | 284° |
| 2026-04-30 09:39 | 13.68064 | 100.74299 | 17 ft | 24 kts | 285° |
| 2026-04-30 09:39 | 13.68108 | 100.74129 | 17 ft | 22 kts | 285° |
| 2026-04-30 09:40 | 13.68163 | 100.74044 | 17 ft | 14 kts | 354° |
| 2026-04-30 09:40 | 13.68267 | 100.74056 | 17 ft | 18 kts | 10° |
| 2026-04-30 09:40 | 13.68415 | 100.74095 | 17 ft | 23 kts | 15° |
| 2026-04-30 09:40 | 13.68575 | 100.74140 | 17 ft | 24 kts | 13° |
| 2026-04-30 09:41 | 13.68744 | 100.74183 | 17 ft | 26 kts | 14° |
| 2026-04-30 09:41 | 13.68921 | 100.74230 | 17 ft | 27 kts | 14° |
| 2026-04-30 09:41 | 13.69106 | 100.74279 | 17 ft | 28 kts | 14° |
| 2026-04-30 09:41 | 13.69296 | 100.74329 | 17 ft | 29 kts | 14° |
| 2026-04-30 09:42 | 13.69441 | 100.74372 | 17 ft | 15 kts | 27° |
| 2026-04-30 09:42 | 13.69456 | 100.74465 | 17 ft | 15 kts | 100° |
| 2026-04-30 09:42 | 13.69463 | 100.74563 | 18 ft | 14 kts | 45° |
| 2026-04-30 09:42 | 13.69558 | 100.74598 | 17 ft | 15 kts | 13° |
| 2026-04-30 09:43 | 13.69647 | 100.74626 | 17 ft | 9 kts | 40° |
| 2026-04-30 09:43 | 13.69648 | 100.74683 | 17 ft | 8 kts | 103° |
| 2026-04-30 09:43 | 13.69642 | 100.74709 | 17 ft | 0 kts | 104° |